Beltdiep — PBYF — position and weather

sailwx.info

Track history (hours):
 
Tides and Currents Weather Stations Pressure Air Temp Water Temp Dewpoint Dewpoint Depression Visibility Wind Speed Wind Dir Waves Ship Positions

Beltdiep

Last reported at 2017-Jan-24 18:33 UTC. Time now 2017-Jan-24 19:26 UTC.
Position N 49°12' W 000°19'.

Length 107 m; draft 5.6 m.

Type: Cargo ship. MMSI: 246671000.

Date/timePositionNaut miles runAvg speedWind from/ knotsBaromVisibWave heightAir tempDewpointWater temp
2017-Jan-24 18:33N 49°12' W 000°19'0 0.0
2017-Jan-24 17:33N 49°12' W 000°19'0 0.0
2017-Jan-24 16:33N 49°12' W 000°19'0 0.0
2017-Jan-24 15:30N 49°12' W 000°19'0 0.0
2017-Jan-24 14:33N 49°12' W 000°19'0 0.0
2017-Jan-24 13:33N 49°12' W 000°19'0 0.0
2017-Jan-24 12:33N 49°12' W 000°19'0 0.0
2017-Jan-24 11:33N 49°12' W 000°19'0 0.0
2017-Jan-24 10:33N 49°12' W 000°19'0 0.0
2017-Jan-24 09:33N 49°12' W 000°19'0 0.0
2017-Jan-24 08:27N 49°12' W 000°19'0 0.0
2017-Jan-24 07:30N 49°12' W 000°19'0 0.0
2017-Jan-24 06:33N 49°12' W 000°19'0 0.0
2017-Jan-24 05:33N 49°12' W 000°19'0 0.0
2017-Jan-24 04:33N 49°12' W 000°19'0 0.0
2017-Jan-24 03:33N 49°12' W 000°19'0 0.0
2017-Jan-24 02:33N 49°12' W 000°19'0 0.0
2017-Jan-24 01:33N 49°12' W 000°19'0 0.0
2017-Jan-24 00:33N 49°12' W 000°19'0 0.0
2017-Jan-23 23:30N 49°12' W 000°19'0 0.0
2017-Jan-23 22:33N 49°12' W 000°19'0 0.0
2017-Jan-23 21:33N 49°12' W 000°19'0 0.0
2017-Jan-23 20:33N 49°12' W 000°19'0 0.0
2017-Jan-23 19:33N 49°12' W 000°19'0 0.0
2017-Jan-23 18:33N 49°12' W 000°19'0 0.0
2017-Jan-23 17:33N 49°12' W 000°19'0 0.0
2017-Jan-23 16:33N 49°12' W 000°19'0 0.0
2017-Jan-23 15:33N 49°12' W 000°19'0 0.0
2017-Jan-23 14:33N 49°12' W 000°19'0 0.0
2017-Jan-23 13:32N 49°12' W 000°19'0 0.0
2017-Jan-23 12:29N 49°12' W 000°19'0 0.0
2017-Jan-23 11:32N 49°12' W 000°19'0 0.0
2017-Jan-23 10:32N 49°12' W 000°19'0 0.0
2017-Jan-23 09:32N 49°12' W 000°19'0 0.0
2017-Jan-23 08:32N 49°12' W 000°19'0 0.0
2017-Jan-23 07:32N 49°12' W 000°19'0 0.0
2017-Jan-23 06:32N 49°12' W 000°19'0 0.0
2017-Jan-23 05:32N 49°12' W 000°19'0 0.0
2017-Jan-23 04:32N 49°12' W 000°19'0 0.0
2017-Jan-23 03:32N 49°12' W 000°19'0 0.0
2017-Jan-23 02:32N 49°12' W 000°19'0 0.0
2017-Jan-23 01:32N 49°12' W 000°19'0 0.0
2017-Jan-23 00:32N 49°12' W 000°19'0 0.0
2017-Jan-22 23:32N 49°12' W 000°19'0 0.0
2017-Jan-22 22:32N 49°12' W 000°19'0 0.0
2017-Jan-22 21:32N 49°12' W 000°19'0 0.0
2017-Jan-22 20:32N 49°12' W 000°19'0 0.0
2017-Jan-22 19:32N 49°12' W 000°19'0 0.0
2017-Jan-22 18:32N 49°12' W 000°19'0 0.0
2017-Jan-22 17:32N 49°12' W 000°19'0 0.0
2017-Jan-22 16:32N 49°12' W 000°19'0 0.0
2017-Jan-22 15:32N 49°12' W 000°19'0 0.0
2017-Jan-22 14:32N 49°12' W 000°19'0 0.0
2017-Jan-22 13:32N 49°12' W 000°19'0 0.0
2017-Jan-22 12:32N 49°12' W 000°19'0 0.0
2017-Jan-22 11:32N 49°12' W 000°19'0 0.0
2017-Jan-22 10:32N 49°12' W 000°19'0 0.0
2017-Jan-22 09:33N 49°12' W 000°19'3 3.1
2017-Jan-22 08:34N 49°14' W 000°17'3 2.7
2017-Jan-22 07:34N 49°17' W 000°15'4 3.9
2017-Jan-22 06:31N 49°21' W 000°13'0 0.1
2017-Jan-22 05:31N 49°21' W 000°13'0 0.0
2017-Jan-22 04:31N 49°21' W 000°13'0 0.0
2017-Jan-22 03:31N 49°21' W 000°13'0 0.0
2017-Jan-22 02:31N 49°21' W 000°13'0 0.0
2017-Jan-22 01:28N 49°21' W 000°13'0 0.1
2017-Jan-22 00:31N 49°21' W 000°14'0 0.0
2017-Jan-21 23:31N 49°21' W 000°14'0 0.0
2017-Jan-21 22:31N 49°21' W 000°14'0 0.0
2017-Jan-21 21:31N 49°21' W 000°14'0 0.0
2017-Jan-21 20:31N 49°21' W 000°14'4 4.0
2017-Jan-21 19:33N 49°25' W 000°14'9 9.2
2017-Jan-21 18:33N 49°30' W 000°25'9 9.3
2017-Jan-21 17:33N 49°35' W 000°37'10 9.6
2017-Jan-21 16:33N 49°40' W 000°50'1010.3
2017-Jan-21 15:34N 49°45' W 001°04'1111.3
2017-Jan-21 14:33N 49°50' W 001°19'1111.3
2017-Jan-21 13:33N 49°51' W 001°37'1110.9
2017-Jan-21 12:34N 49°52' W 001°54'1010.1
2017-Jan-21 11:33N 49°53' W 002°09'27 8.6
2017-Jan-21 08:22N 49°47' W 002°51'11 8.4
2017-Jan-21 07:05N 49°43' W 003°06'9 8.7
2017-Jan-21 06:04N 49°39' W 003°18'5 8.9
2017-Jan-21 05:33N 49°36' W 003°24'10 9.0
2017-Jan-21 04:28N 49°31' W 003°36'78 9.5
2017-Jan-20 20:13N 48°51' W 005°20'  
2017-Jan-17 18:22N 39°23' W 009°51'11 9.5
2017-Jan-17 17:12N 39°12' W 009°51'6 9.7
2017-Jan-17 16:33N 39°06' W 009°51'10 9.5
2017-Jan-17 15:33N 38°56' W 009°52'10 9.6
2017-Jan-17 14:33N 38°47' W 009°52'10 9.6
2017-Jan-17 13:33N 38°37' W 009°50'9 9.4
2017-Jan-17 12:33N 38°28' W 009°47'10 9.5
2017-Jan-17 11:33N 38°19' W 009°45'10 9.8
2017-Jan-17 10:33N 38°09' W 009°42'10 9.6
2017-Jan-17 09:32N 37°60' W 009°39'9 9.6
2017-Jan-17 08:33N 37°50' W 009°36'9 9.6
2017-Jan-17 07:33N 37°41' W 009°33'11 9.8
2017-Jan-17 06:28N 37°31' W 009°30'9 9.9
2017-Jan-17 05:33N 37°22' W 009°28'10 9.7
2017-Jan-17 04:33N 37°13' W 009°25'9 9.4
2017-Jan-17 03:33N 37°03' W 009°22'  
Track history (hours):
 
Tides and Currents Weather Stations Pressure Air Temp Water Temp Dewpoint Dewpoint Depression Visibility Wind Speed Wind Dir Waves Ship Positions

Beltdiep

Last reported at 2017-Jan-24 18:33 UTC. Time now 2017-Jan-24 19:26 UTC.
Position N 49°12' W 000°19'.

Length 107 m; draft 5.6 m.

Type: Cargo ship. MMSI: 246671000.

Date/timePositionNaut miles runAvg speedWind from/ knotsBaromVisibWave heightAir tempDewpointWater temp
2017-Jan-24 18:33N 49°12' W 000°19'0 0.0
2017-Jan-24 17:33N 49°12' W 000°19'0 0.0
2017-Jan-24 16:33N 49°12' W 000°19'0 0.0
2017-Jan-24 15:30N 49°12' W 000°19'0 0.0
2017-Jan-24 14:33N 49°12' W 000°19'0 0.0
2017-Jan-24 13:33N 49°12' W 000°19'0 0.0
2017-Jan-24 12:33N 49°12' W 000°19'0 0.0
2017-Jan-24 11:33N 49°12' W 000°19'0 0.0
2017-Jan-24 10:33N 49°12' W 000°19'0 0.0
2017-Jan-24 09:33N 49°12' W 000°19'0 0.0
2017-Jan-24 08:27N 49°12' W 000°19'0 0.0
2017-Jan-24 07:30N 49°12' W 000°19'0 0.0
2017-Jan-24 06:33N 49°12' W 000°19'0 0.0
2017-Jan-24 05:33N 49°12' W 000°19'0 0.0
2017-Jan-24 04:33N 49°12' W 000°19'0 0.0
2017-Jan-24 03:33N 49°12' W 000°19'0 0.0
2017-Jan-24 02:33N 49°12' W 000°19'0 0.0
2017-Jan-24 01:33N 49°12' W 000°19'0 0.0
2017-Jan-24 00:33N 49°12' W 000°19'0 0.0
2017-Jan-23 23:30N 49°12' W 000°19'0 0.0
2017-Jan-23 22:33N 49°12' W 000°19'0 0.0
2017-Jan-23 21:33N 49°12' W 000°19'0 0.0
2017-Jan-23 20:33N 49°12' W 000°19'0 0.0
2017-Jan-23 19:33N 49°12' W 000°19'0 0.0
2017-Jan-23 18:33N 49°12' W 000°19'0 0.0
2017-Jan-23 17:33N 49°12' W 000°19'0 0.0
2017-Jan-23 16:33N 49°12' W 000°19'0 0.0
2017-Jan-23 15:33N 49°12' W 000°19'0 0.0
2017-Jan-23 14:33N 49°12' W 000°19'0 0.0
2017-Jan-23 13:32N 49°12' W 000°19'0 0.0
2017-Jan-23 12:29N 49°12' W 000°19'0 0.0
2017-Jan-23 11:32N 49°12' W 000°19'0 0.0
2017-Jan-23 10:32N 49°12' W 000°19'0 0.0
2017-Jan-23 09:32N 49°12' W 000°19'0 0.0
2017-Jan-23 08:32N 49°12' W 000°19'0 0.0
2017-Jan-23 07:32N 49°12' W 000°19'0 0.0
2017-Jan-23 06:32N 49°12' W 000°19'0 0.0
2017-Jan-23 05:32N 49°12' W 000°19'0 0.0
2017-Jan-23 04:32N 49°12' W 000°19'0 0.0
2017-Jan-23 03:32N 49°12' W 000°19'0 0.0
2017-Jan-23 02:32N 49°12' W 000°19'0 0.0
2017-Jan-23 01:32N 49°12' W 000°19'0 0.0
2017-Jan-23 00:32N 49°12' W 000°19'0 0.0
2017-Jan-22 23:32N 49°12' W 000°19'0 0.0
2017-Jan-22 22:32N 49°12' W 000°19'0 0.0
2017-Jan-22 21:32N 49°12' W 000°19'0 0.0
2017-Jan-22 20:32N 49°12' W 000°19'0 0.0
2017-Jan-22 19:32N 49°12' W 000°19'0 0.0
2017-Jan-22 18:32N 49°12' W 000°19'0 0.0
2017-Jan-22 17:32N 49°12' W 000°19'0 0.0
2017-Jan-22 16:32N 49°12' W 000°19'0 0.0
2017-Jan-22 15:32N 49°12' W 000°19'0 0.0
2017-Jan-22 14:32N 49°12' W 000°19'0 0.0
2017-Jan-22 13:32N 49°12' W 000°19'0 0.0
2017-Jan-22 12:32N 49°12' W 000°19'0 0.0
2017-Jan-22 11:32N 49°12' W 000°19'0 0.0
2017-Jan-22 10:32N 49°12' W 000°19'0 0.0
2017-Jan-22 09:33N 49°12' W 000°19'3 3.1
2017-Jan-22 08:34N 49°14' W 000°17'3 2.7
2017-Jan-22 07:34N 49°17' W 000°15'4 3.9
2017-Jan-22 06:31N 49°21' W 000°13'0 0.1
2017-Jan-22 05:31N 49°21' W 000°13'0 0.0
2017-Jan-22 04:31N 49°21' W 000°13'0 0.0
2017-Jan-22 03:31N 49°21' W 000°13'0 0.0
2017-Jan-22 02:31N 49°21' W 000°13'0 0.0
2017-Jan-22 01:28N 49°21' W 000°13'0 0.1
2017-Jan-22 00:31N 49°21' W 000°14'0 0.0
2017-Jan-21 23:31N 49°21' W 000°14'0 0.0
2017-Jan-21 22:31N 49°21' W 000°14'0 0.0
2017-Jan-21 21:31N 49°21' W 000°14'0 0.0
2017-Jan-21 20:31N 49°21' W 000°14'4 4.0
2017-Jan-21 19:33N 49°25' W 000°14'9 9.2
2017-Jan-21 18:33N 49°30' W 000°25'9 9.3
2017-Jan-21 17:33N 49°35' W 000°37'10 9.6
2017-Jan-21 16:33N 49°40' W 000°50'1010.3
2017-Jan-21 15:34N 49°45' W 001°04'1111.3
2017-Jan-21 14:33N 49°50' W 001°19'1111.3
2017-Jan-21 13:33N 49°51' W 001°37'1110.9
2017-Jan-21 12:34N 49°52' W 001°54'1010.1
2017-Jan-21 11:33N 49°53' W 002°09'27 8.6
2017-Jan-21 08:22N 49°47' W 002°51'11 8.4
2017-Jan-21 07:05N 49°43' W 003°06'9 8.7
2017-Jan-21 06:04N 49°39' W 003°18'5 8.9
2017-Jan-21 05:33N 49°36' W 003°24'10 9.0
2017-Jan-21 04:28N 49°31' W 003°36'78 9.5
2017-Jan-20 20:13N 48°51' W 005°20'  
2017-Jan-17 18:22N 39°23' W 009°51'11 9.5
2017-Jan-17 17:12N 39°12' W 009°51'6 9.7
2017-Jan-17 16:33N 39°06' W 009°51'10 9.5
2017-Jan-17 15:33N 38°56' W 009°52'10 9.6
2017-Jan-17 14:33N 38°47' W 009°52'10 9.6
2017-Jan-17 13:33N 38°37' W 009°50'9 9.4
2017-Jan-17 12:33N 38°28' W 009°47'10 9.5
2017-Jan-17 11:33N 38°19' W 009°45'10 9.8
2017-Jan-17 10:33N 38°09' W 009°42'10 9.6
2017-Jan-17 09:32N 37°60' W 009°39'9 9.6
2017-Jan-17 08:33N 37°50' W 009°36'9 9.6
2017-Jan-17 07:33N 37°41' W 009°33'11 9.8
2017-Jan-17 06:28N 37°31' W 009°30'9 9.9
2017-Jan-17 05:33N 37°22' W 009°28'10 9.7
2017-Jan-17 04:33N 37°13' W 009°25'9 9.4
2017-Jan-17 03:33N 37°03' W 009°22'  

Dump ship's entire track history